WetterOnline ( https://www.wetteronline.de )

Wetter aktuell Schwerin

Aktuelles Wetter: Schwerin (68m)

6-stündlich | Neueste Meldungen
Ortszeit Temperatur Wetter
Fr, 07.08. 20:00 29.4° C leicht bewölkt
Fr, 07.08. 14:00 29.6° C leicht bewölkt
Fr, 07.08. 8:00 21.0° C wolkenlos
Fr, 07.08. 2:00 19.1° C wolkenlos
Do, 06.08. 20:00 28.6° C wolkenlos
Do, 06.08. 14:00 29.5° C wolkenlos
Do, 06.08. 8:00 19.7° C wolkenlos
Do, 06.08. 2:00 17.4° C wolkenlos
Ortszeit Temperatur Wetter
Fr, 07.08. 21:00 26.7° C leicht bewölkt
Fr, 07.08. 20:50 26.7° C leicht bewölkt
Fr, 07.08. 20:40 27.1° C wolkig
Fr, 07.08. 20:30 28.6° C bewölkt
Fr, 07.08. 20:20 28.6° C bewölkt
Fr, 07.08. 20:10 28.7° C wolkig
Fr, 07.08. 20:00 29.4° C leicht bewölkt
Fr, 07.08. 19:30 30.0° C wolkenlos
Fr, 07.08. 19:00 30.3° C wolkenlos
Fr, 07.08. 18:30 30.5° C wolkenlos
Fr, 07.08. 18:00 30.9° C wolkenlos
Ortszeit Relative Feuchte Sichtweite
Fr, 07.08. 20:00 43% 60 km
Fr, 07.08. 14:00 38% 55 km
Fr, 07.08. 8:00 64% 40 km
Fr, 07.08. 2:00 62% 50 km
Do, 06.08. 20:00 31% 65 km
Do, 06.08. 14:00 28% 60 km
Do, 06.08. 8:00 52% 50 km
Do, 06.08. 2:00 63% 65 km
Ortszeit Relative Feuchte Sichtweite
Fr, 07.08. 21:00 53% 50 km
Fr, 07.08. 20:50 53% -
Fr, 07.08. 20:40 52% -
Fr, 07.08. 20:30 47% 55 km
Fr, 07.08. 20:20 47% -
Fr, 07.08. 20:10 47% -
Fr, 07.08. 20:00 43% 60 km
Fr, 07.08. 19:30 39% 50 km
Fr, 07.08. 19:00 38% 45 km
Fr, 07.08. 18:30 37% 65 km
Fr, 07.08. 18:00 35% >70 km
Ortszeit Niederschlagsmenge Niederschlagsart
Fr, 07.08. 20:00 0.0 l/m2 in 12 Std. -
Fr, 07.08. 14:00 0.0 l/m2 in 6 Std. -
Fr, 07.08. 8:00 0.0 l/m2 in 12 Std. -
Fr, 07.08. 2:00 0.0 l/m2 in 6 Std. -
Do, 06.08. 20:00 0.0 l/m2 in 12 Std. -
Do, 06.08. 14:00 0.0 l/m2 in 6 Std. -
Do, 06.08. 8:00 0.0 l/m2 in 12 Std. -
Do, 06.08. 2:00 0.0 l/m2 in 6 Std. -
Ortszeit Niederschlagsmenge Niederschlagsart
Fr, 07.08. 21:00 0.0 l/m2 in 1 Std. -
Fr, 07.08. 20:50 keine Meldung -
Fr, 07.08. 20:40 keine Meldung -
Fr, 07.08. 20:30 0.0 l/m2 in 1 Std. -
Fr, 07.08. 20:20 keine Meldung -
Fr, 07.08. 20:10 keine Meldung -
Fr, 07.08. 20:00 0.0 l/m2 in 1 Std. -
Fr, 07.08. 19:30 0.0 l/m2 in 1 Std. -
Fr, 07.08. 19:00 0.0 l/m2 in 1 Std. -
Fr, 07.08. 18:30 0.0 l/m2 in 1 Std. -
Fr, 07.08. 18:00 0.0 l/m2 in 1 Std. -
Ortszeit Stärke Spitze Richtung
km/h Bft. km/h Grad Sektor
Fr, 07.08. 20:00 4 1 22 60° NO
Fr, 07.08. 14:00 11 2 25 90° O
Fr, 07.08. 8:00 6 1 13 100° O
Fr, 07.08. 2:00 7 2 18 110° O
Do, 06.08. 20:00 7 2 25 140° SO
Do, 06.08. 14:00 7 2 22 160° S
Do, 06.08. 8:00 6 1 15 150° SO
Do, 06.08. 2:00 6 1 17 140° SO
Ortszeit Stärke Spitze Richtung
km/h Bft. km/h Grad Sektor
Fr, 07.08. 21:00 9 2 22 80° O
Fr, 07.08. 20:50 9 2 - 80° O
Fr, 07.08. 20:40 11 2 - 70° O
Fr, 07.08. 20:30 4 1 7 70° O
Fr, 07.08. 20:20 4 1 - 70° O
Fr, 07.08. 20:10 4 1 - 70° O
Fr, 07.08. 20:00 4 1 11 60° NO
Fr, 07.08. 19:30 7 2 11 70° O
Fr, 07.08. 19:00 9 2 17 60° NO
Fr, 07.08. 18:30 7 2 14 60° NO
Fr, 07.08. 18:00 7 2 18 90° O
Ortszeit Untergrenze Bedeckung Gattung
total tief tief mittel hoch
Fr, 07.08. 20:00 10500 m 5/8 0/8 - - -
Fr, 07.08. 14:00 10500 m 3/8 0/8 - - -
Fr, 07.08. 8:00 - 0/8 0/8 - - -
Fr, 07.08. 2:00 - 0/8 0/8 - - -
Do, 06.08. 20:00 - 0/8 0/8 - - -
Do, 06.08. 14:00 - 0/8 0/8 - - -
Do, 06.08. 8:00 - 0/8 0/8 - - -
Do, 06.08. 2:00 - 0/8 0/8 - - -
Ortszeit Bedeckungsgrad in Achtel und Wolkenuntergrenze
Fr, 07.08. 21:00 1(1800m) 3(9000m)
Fr, 07.08. 20:50 1(1800m) 3(9000m) 3(10500m)
Fr, 07.08. 20:40 4(1800m) 6(9000m) 7(10500m)
Fr, 07.08. 20:30 5(1800m) 8(9000m) 7(10500m)
Fr, 07.08. 20:20 5(1800m) 8(9000m)
Fr, 07.08. 20:10 2(1800m) 6(9000m) 8(10500m)
Fr, 07.08. 20:00 5(10500m) 7(10500m)
Fr, 07.08. 19:30 keine Wolken
Fr, 07.08. 19:00 keine Wolken
Fr, 07.08. 18:30 keine Wolken
Fr, 07.08. 18:00 keine Wolken
Ortszeit Luftdruck NN (hPa) Tendenz (hPa in 3 Std.)
Fr, 07.08. 20:00 1021 - 0,6
Fr, 07.08. 14:00 1022 - 1,0
Fr, 07.08. 8:00 1023 + 0,5
Fr, 07.08. 2:00 1023 + 0,6
Do, 06.08. 20:00 1021 + 0,2
Do, 06.08. 14:00 1021 - 0,2
Do, 06.08. 8:00 1021 + 1,1
Do, 06.08. 2:00 1019 + 0,5
Ortszeit Luftdruck NN (hPa) Tendenz (hPa in 3 Std.)
Fr, 07.08. 21:00 1021 - 0,4
Fr, 07.08. 20:50 1021 keine Meldung
Fr, 07.08. 20:40 1021 keine Meldung
Fr, 07.08. 20:30 1021 - 0,5
Fr, 07.08. 20:20 1021 keine Meldung
Fr, 07.08. 20:10 1021 keine Meldung
Fr, 07.08. 20:00 1021 - 0,6
Fr, 07.08. 19:30 1020 - 0,9
Fr, 07.08. 19:00 1021 - 1,0
Fr, 07.08. 18:30 1021 - 0,9
Fr, 07.08. 18:00 1021 - 0,9
Ortszeit Schneehöhe (cm)
Fr, 07.08. 20:00 -
Fr, 07.08. 14:00 -
Fr, 07.08. 8:00 -
Fr, 07.08. 2:00 -
Do, 06.08. 20:00 -
Do, 06.08. 14:00 -
Do, 06.08. 8:00 -
Do, 06.08. 2:00 -
Ortszeit Schneehöhe (cm)
Fr, 07.08. 21:00 -
Fr, 07.08. 20:50 -
Fr, 07.08. 20:40 -
Fr, 07.08. 20:30 -
Fr, 07.08. 20:20 -
Fr, 07.08. 20:10 -
Fr, 07.08. 20:00 -
Fr, 07.08. 19:30 -
Fr, 07.08. 19:00 -
Fr, 07.08. 18:30 -
Fr, 07.08. 18:00 -
Link zu dieser Seite / Seite empfehlen

Das Wetter in ...